地図

経路データ

SID SEASON NUMBER BASIN SUBBASIN NAME ISO_TIME NATURE LAT LON WMO_WIND WMO_PRES WMO_AGENCY TRACK_TYPE DIST2LAND LANDFALL IFLAG USA_AGENCY USA_ATCF_ID USA_LAT USA_LON USA_RECORD USA_STATUS USA_WIND USA_PRES USA_SSHS USA_R34_NE USA_R34_SE USA_R34_SW USA_R34_NW USA_R50_NE USA_R50_SE USA_R50_SW USA_R50_NW USA_R64_NE USA_R64_SE USA_R64_SW USA_R64_NW USA_POCI USA_ROCI USA_RMW USA_EYE TOKYO_LAT TOKYO_LON TOKYO_GRADE TOKYO_WIND TOKYO_PRES TOKYO_R50_DIR TOKYO_R50_LONG TOKYO_R50_SHORT TOKYO_R30_DIR TOKYO_R30_LONG TOKYO_R30_SHORT TOKYO_LAND CMA_LAT CMA_LON CMA_CAT CMA_WIND CMA_PRES HKO_LAT HKO_LON HKO_CAT HKO_WIND HKO_PRES NEWDELHI_LAT NEWDELHI_LON NEWDELHI_GRADE NEWDELHI_WIND NEWDELHI_PRES NEWDELHI_CI NEWDELHI_DP NEWDELHI_POCI REUNION_LAT REUNION_LON REUNION_TYPE REUNION_WIND REUNION_PRES REUNION_TNUM REUNION_CI REUNION_RMW REUNION_R34_NE REUNION_R34_SE REUNION_R34_SW REUNION_R34_NW REUNION_R50_NE REUNION_R50_SE REUNION_R50_SW REUNION_R50_NW REUNION_R64_NE REUNION_R64_SE REUNION_R64_SW REUNION_R64_NW BOM_LAT BOM_LON BOM_TYPE BOM_WIND BOM_PRES BOM_TNUM BOM_CI BOM_RMW BOM_R34_NE BOM_R34_SE BOM_R34_SW BOM_R34_NW BOM_R50_NE BOM_R50_SE BOM_R50_SW BOM_R50_NW BOM_R64_NE BOM_R64_SE BOM_R64_SW BOM_R64_NW BOM_ROCI BOM_POCI BOM_EYE BOM_POS_METHOD BOM_PRES_METHOD NADI_LAT NADI_LON NADI_CAT NADI_WIND NADI_PRES WELLINGTON_LAT WELLINGTON_LON WELLINGTON_WIND WELLINGTON_PRES DS824_LAT DS824_LON DS824_STAGE DS824_WIND DS824_PRES TD9636_LAT TD9636_LON TD9636_STAGE TD9636_WIND TD9636_PRES TD9635_LAT TD9635_LON TD9635_WIND TD9635_PRES TD9635_ROCI NEUMANN_LAT NEUMANN_LON NEUMANN_CLASS NEUMANN_WIND NEUMANN_PRES MLC_LAT MLC_LON MLC_CLASS MLC_WIND MLC_PRES USA_GUST BOM_GUST BOM_GUST_PER REUNION_GUST REUNION_GUST_PER USA_SEAHGT USA_SEARAD_NE USA_SEARAD_SE USA_SEARAD_SW USA_SEARAD_NW STORM_SPEED STORM_DIR
1997311N10151 1997 108 WP MM MORT 1997-11-07 00:00:00 NR 10.1000 150.800 main 1417 1404 O_____________ jtwc_wp WP311997 10.1000 150.800 15 -1 10 276
1997311N10151 1997 108 WP MM MORT 1997-11-07 03:00:00 NR 10.1527 150.300 main 1415 1403 P_____________ WP311997 10.1527 150.300 15 -1 10 276
1997311N10151 1997 108 WP MM MORT 1997-11-07 06:00:00 NR 10.2000 149.800 main 1403 1394 O_____________ jtwc_wp WP311997 10.2000 149.800 15 -1 10 275
1997311N10151 1997 108 WP MM MORT 1997-11-07 09:00:00 NR 10.2424 149.300 main 1394 1392 P_____________ WP311997 10.2424 149.300 15 -1 10 276
1997311N10151 1997 108 WP MM MORT 1997-11-07 12:00:00 NR 10.3000 148.800 main 1398 1394 O_____________ jtwc_wp WP311997 10.3000 148.800 15 -1 10 279
1997311N10151 1997 108 WP MM MORT 1997-11-07 15:00:00 NR 10.3925 148.293 main 1404 1402 P_____________ WP311997 10.3925 148.293 17 -1 10 281
1997311N10151 1997 108 WP MM MORT 1997-11-07 18:00:00 NR 10.5000 147.800 main 1412 1411 O_____________ jtwc_wp WP311997 10.5000 147.800 20 -1 10 283
1997311N10151 1997 108 WP MM MORT 1997-11-07 21:00:00 NR 10.6074 147.342 main 1423 1423 P_____________ WP311997 10.6074 147.342 20 -1 9 283
1997311N10151 1997 108 WP MM MORT 1997-11-08 00:00:00 NR 10.7000 146.900 main 1434 1434 O_____________ jtwc_wp WP311997 10.7000 146.900 20 -1 9 280
1997311N10151 1997 108 WP MM MORT 1997-11-08 03:00:00 NR 10.7574 146.450 main 1445 1445 P_____________ WP311997 10.7574 146.450 20 -1 9 276
1997311N10151 1997 108 WP MM MORT 1997-11-08 06:00:00 NR 10.8000 146.000 main 1446 1446 O_____________ jtwc_wp WP311997 10.8000 146.000 20 -1 9 276
1997311N10151 1997 108 WP MM MORT 1997-11-08 09:00:00 NR 10.8499 145.550 main 1449 1450 P_____________ WP311997 10.8499 145.550 20 -1 9 276
1997311N10151 1997 108 WP MM MORT 1997-11-08 12:00:00 NR 10.9000 145.100 main 1466 1466 O_____________ jtwc_wp WP311997 10.9000 145.100 20 -1 9 276
1997311N10151 1997 108 WP MM MORT 1997-11-08 15:00:00 NR 10.9499 144.650 main 1471 1471 P_____________ WP311997 10.9499 144.650 20 -1 9 276
1997311N10151 1997 108 WP MM MORT 1997-11-08 18:00:00 NR 11.0000 144.200 main 1491 1491 O_____________ jtwc_wp WP311997 11.0000 144.200 20 -1 9 277
1997311N10151 1997 108 WP MM MORT 1997-11-08 21:00:00 NR 11.0575 143.735 main 1513 1513 P_____________ WP311997 11.0575 143.735 20 -1 9 276
1997311N10151 1997 108 WP MM MORT 1997-11-09 00:00:00 NR 11.1000 143.300 main 1523 1515 O_____________ jtwc_wp WP311997 11.1000 143.300 20 -1 8 274
1997311N10151 1997 108 WP MM MORT 1997-11-09 03:00:00 NR 11.1075 142.912 main 1515 1504 P_____________ WP311997 11.1075 142.912 20 -1 7 270
1997311N10151 1997 108 WP MM MORT 1997-11-09 06:00:00 NR 11.1000 142.600 main 1504 1497 O_____________ jtwc_wp WP311997 11.1000 142.600 20 -1 5 269
1997311N10151 1997 108 WP MM MORT 1997-11-09 09:00:00 NR 11.0999 142.370 main 1497 1479 P_____________ WP311997 11.0999 142.370 20 -1 4 261
1997311N10151 1997 108 WP MM MORT 1997-11-09 12:00:00 TS 11.0400 142.200 1006 tokyo main 1479 1476 OO____________ jtwc_wp WP311997 11.1000 142.200 20 -1 10.8000 142.200 2 1006 0 0 0 3 252
1997311N10151 1997 108 WP MM MORT 1997-11-09 15:00:00 TS 10.9966 142.053 main 1476 1470 PP____________ WP311997 11.1000 142.050 20 -1 10.7900 142.060 2 1006 0 0 3 257
1997311N10151 1997 108 WP MM MORT 1997-11-09 18:00:00 TS 10.9714 141.900 1006 tokyo main 1470 1463 OO____________ jtwc_wp WP311997 11.1000 141.900 20 -1 10.8000 141.900 2 1006 0 0 0 3 266
1997311N10151 1997 108 WP MM MORT 1997-11-09 21:00:00 TS 10.9713 141.708 main 1463 1458 PP____________ WP311997 11.1000 141.708 20 -1 10.8425 141.708 2 1005 0 0 4 274
1997311N10151 1997 108 WP MM MORT 1997-11-10 00:00:00 TS 11.0000 141.500 1004 tokyo main 1458 1450 OO____________ jtwc_wp WP311997 11.1000 141.500 20 -1 10.9000 141.500 2 1004 0 0 0 4 278
1997311N10151 1997 108 WP MM MORT 1997-11-10 03:00:00 TS 11.0287 141.315 main 1450 1441 PP____________ WP311997 11.0999 141.323 20 -1 10.9575 141.308 2 1004 0 0 4 277
1997311N10151 1997 108 WP MM MORT 1997-11-10 06:00:00 TS 11.0500 141.100 1004 tokyo main 1452 1429 OO____________ jtwc_wp WP311997 11.1000 141.100 20 -1 11.0000 141.100 2 1004 0 0 0 5 272
1997311N10151 1997 108 WP MM MORT 1997-11-10 09:00:00 TS 11.0425 140.819 main 1429 1416 PP____________ WP311997 11.0925 140.780 20 -1 10.9925 140.857 2 1004 0 0 6 270
1997311N10151 1997 108 WP MM MORT 1997-11-10 12:00:00 TS 11.0500 140.500 1004 tokyo main 1427 1415 OO____________ jtwc_wp WP311997 11.1000 140.400 20 -1 11.0000 140.600 2 1004 0 0 0 6 276
1997311N10151 1997 108 WP MM MORT 1997-11-10 15:00:00 TS 11.1100 140.183 main 1415 1408 PP____________ WP311997 11.1350 140.000 22 -1 11.0849 140.365 2 1002 0 0 7 283
1997311N10151 1997 108 WP MM MORT 1997-11-10 18:00:00 TS 11.2000 139.850 1000 tokyo main 1415 1408 OO____________ jtwc_wp WP311997 11.2000 139.600 25 -1 11.2000 140.100 2 1000 0 0 0 7 285
1997311N10151 1997 108 WP MM MORT 1997-11-10 21:00:00 TS 11.2925 139.500 main 1412 1405 PP____________ WP311997 11.2850 139.235 27 -1 11.3000 139.765 2 1000 0 0 7 286
1997311N10151 1997 108 WP MM MORT 1997-11-11 00:00:00 TS 11.4000 139.150 1000 tokyo main 1412 1406 OO____________ jtwc_wp WP311997 11.4000 138.900 30 -1 11.4000 139.400 2 1000 0 0 0 7 289
1997311N10151 1997 108 WP MM MORT 1997-11-11 03:00:00 TS 11.5099 138.840 main 1402 1372 PP____________ WP311997 11.5349 138.607 32 -1 11.4849 139.072 2 999 0 0 7 293
1997311N10151 1997 108 WP MM MORT 1997-11-11 06:00:00 TS 11.6600 138.520 35 998 tokyo main 1374 1344 OOOO__________ jtwc_wp WP311997 11.7000 138.300 35 0 11.6000 138.700 3 35 998 0 9 120 120 0 11.5000 138.500 1 29 1000 11.9000 138.700 TD 30 1000 8 298
1997311N10151 1997 108 WP MM MORT 1997-11-11 09:00:00 TS 11.8758 138.138 main 1336 1298 PPPP__________ WP311997 11.9000 137.923 40 0 11.7849 138.245 3 37 997 0 9 130 130 11.8276 138.115 1 29 999 12.0575 138.378 TD 30 1000 9 299
1997311N10151 1997 108 WP MM MORT 1997-11-11 12:00:00 TS 12.0929 137.707 40 996 tokyo main 1298 1250 OOOO__________ jtwc_wp WP311997 12.1000 137.500 45 0 12.0000 137.700 3 40 996 0 9 140 140 0 12.1000 137.700 1 29 998 12.2000 138.000 TD 30 1000 10 293
1997311N10151 1997 108 WP MM MORT 1997-11-11 15:00:00 TS 12.2650 137.215 main 1250 1197 PPPP__________ WP311997 12.2575 137.057 47 0 12.2077 137.043 3 40 996 0 9 140 140 12.2799 137.230 1 33 996 12.3150 137.530 TD 32 999 11 287
1997311N10151 1997 108 WP MM MORT 1997-11-11 18:00:00 TS 12.4000 136.675 40 996 tokyo main 1197 1145 OOOO__________ jtwc_wp WP311997 12.4000 136.600 50 0 12.4000 136.400 3 40 996 0 9 140 140 0 12.4000 136.700 2 38 995 12.4000 137.000 TS 35 998 11 283
1997311N10151 1997 108 WP MM MORT 1997-11-11 21:00:00 TS 12.5125 136.147 main 1134 1093 PPPP__________ WP311997 12.5500 136.142 52 0 12.5648 135.905 3 42 995 0 9 145 145 12.4926 136.100 2 38 995 12.4425 136.442 TS 37 996 10 283
1997311N10151 1997 108 WP MM MORT 1997-11-12 00:00:00 TS 12.6250 135.650 45 994 tokyo main 1093 1043 OOOO__________ jtwc_wp WP311997 12.7000 135.700 55 0 12.7000 135.500 3 45 994 0 9 150 150 0 12.6000 135.500 2 38 995 12.5000 135.900 TS 40 994 10 286
1997311N10151 1997 108 WP MM MORT 1997-11-12 03:00:00 TS 12.7674 135.210 main 1043 1002 PPPP__________ WP311997 12.8499 135.292 57 0 12.7999 135.135 3 45 993 0 9 150 150 12.7849 134.970 2 41 993 12.6348 135.443 TS 40 994 9 290
1997311N10151 1997 108 WP MM MORT 1997-11-12 06:00:00 TS 12.9250 134.800 45 992 tokyo main 1002 964 OOOO__________ jtwc_wp WP311997 13.0000 134.900 60 0 12.9000 134.800 3 45 992 0 9 150 150 0 13.0000 134.500 2 44 992 12.8000 135.000 TS 40 994 9 292
1997311N10151 1997 108 WP MM MORT 1997-11-12 09:00:00 TS 13.0931 134.382 main 964 925 PPPP__________ WP311997 13.1649 134.500 60 0 13.0425 134.450 3 45 992 0 9 150 150 13.2149 134.070 2 44 992 12.9499 134.507 TS 40 994 9 292
1997311N10151 1997 108 WP MM MORT 1997-11-12 12:00:00 TS 13.2500 133.975 45 992 tokyo main 928 889 OOOO__________ jtwc_wp WP311997 13.3000 134.100 60 0 13.2000 134.100 3 45 992 0 9 150 150 0 13.4000 133.700 2 44 992 13.1000 134.000 TS 40 994 8 290
1997311N10151 1997 108 WP MM MORT 1997-11-12 15:00:00 TS 13.3756 133.580 main 889 847 PPPP__________ WP311997 13.3650 133.692 62 0 13.3499 133.757 3 45 992 0 9 150 150 13.5224 133.385 2 44 992 13.2650 133.485 TS 42 992 8 287
1997311N10151 1997 108 WP MM MORT 1997-11-12 18:00:00 TS 13.4750 133.200 45 992 tokyo main 847 815 OOOO__________ jtwc_wp WP311997 13.4000 133.300 65 1 13.5000 133.400 3 45 992 0 9 150 150 0 13.6000 133.100 2 44 992 13.4000 133.000 TS 45 990 7 284
1997311N10151 1997 108 WP MM MORT 1997-11-12 21:00:00 TS 13.5555 132.836 main 807 775 PPPP__________ WP311997 13.4499 132.942 65 1 13.6650 132.993 3 45 992 0 9 150 150 13.6424 132.815 2 44 992 13.4648 132.592 TS 45 990 7 282
1997311N10151 1997 108 WP MM MORT 1997-11-13 00:00:00 TS 13.6250 132.475 45 992 tokyo main 775 735 OOOO__________ jtwc_wp WP311997 13.5000 132.600 65 1 13.8000 132.600 3 45 992 0 9 150 150 0 13.7000 132.500 2 44 992 13.5000 132.200 TS 45 990 7 282
1997311N10151 1997 108 WP MM MORT 1997-11-13 03:00:00 TS 13.7093 132.111 main 735 695 PPPP__________ WP311997 13.5574 132.258 65 1 13.8648 132.300 3 45 992 0 9 150 150 13.8649 132.138 2 44 992 13.5500 131.750 TS 45 990 7 282
1997311N10151 1997 108 WP MM MORT 1997-11-13 06:00:00 TS 13.7750 131.725 45 992 tokyo main 695 653 OOOO__________ jtwc_wp WP311997 13.6000 131.900 65 1 13.9000 132.000 3 45 992 0 9 150 150 0 14.0000 131.700 2 44 992 13.6000 131.300 TS 45 990 8 277
1997311N10151 1997 108 WP MM MORT 1997-11-13 09:00:00 TS 13.8025 131.299 main 653 612 PPPP__________ WP311997 13.5999 131.515 60 0 13.9649 131.630 3 45 992 0 9 150 150 13.9876 131.157 2 44 992 13.6574 130.893 TS 45 990 9 272
1997311N10151 1997 108 WP MM MORT 1997-11-13 12:00:00 TS 13.8000 130.850 45 992 tokyo main 612 560 OOOO__________ jtwc_wp WP311997 13.6000 131.100 55 0 14.0000 131.200 3 45 992 0 9 150 150 0 13.9000 130.600 2 44 992 13.7000 130.500 TS 45 990 9 268
1997311N10151 1997 108 WP MM MORT 1997-11-13 15:00:00 TS 13.7787 130.406 main 560 519 PPPP__________ WP311997 13.6424 130.665 50 0 13.9649 130.730 3 45 993 0 9 145 145 13.7999 130.127 2 44 992 13.7074 130.100 TS 45 990 9 267
1997311N10151 1997 108 WP MM MORT 1997-11-13 18:00:00 TS 13.7500 129.950 45 994 tokyo main 519 465 OOOO__________ jtwc_wp WP311997 13.7000 130.200 45 0 13.9000 130.200 3 45 994 0 9 140 140 0 13.7000 129.700 2 44 992 13.7000 129.700 TS 45 990 9 267
1997311N10151 1997 108 WP MM MORT 1997-11-13 21:00:00 TS 13.7281 129.475 main 465 415 PPPP__________ WP311997 13.7499 129.707 40 0 13.8426 129.592 3 45 994 0 9 140 140 13.6199 129.300 2 44 992 13.6999 129.300 TS 45 990 9 268
1997311N10151 1997 108 WP MM MORT 1997-11-14 00:00:00 TS 13.7250 129.000 45 994 tokyo main 415 375 OOOO__________ jtwc_wp WP311997 13.8000 129.200 35 0 13.8000 129.000 3 45 994 0 9 140 140 0 13.6000 128.900 2 44 992 13.7000 128.900 TS 45 990 9 271
1997311N10151 1997 108 WP MM MORT 1997-11-14 03:00:00 TS 13.7474 128.548 main 366 333 PPPP__________ WP311997 13.8424 128.707 35 0 13.7773 128.520 3 45 995 0 9 130 130 13.6774 128.465 2 44 992 13.6924 128.500 TS 42 992 9 275
1997311N10151 1997 108 WP MM MORT 1997-11-14 06:00:00 TS 13.8000 128.100 45 996 tokyo main 333 305 OOOO__________ jtwc_wp WP311997 13.9000 128.200 35 0 13.8000 128.100 3 45 996 0 9 120 120 0 13.8000 128.000 2 44 992 13.7000 128.100 TS 40 994 9 278
1997311N10151 1997 108 WP MM MORT 1997-11-14 09:00:00 TS 13.8743 127.632 main 296 272 PPPP__________ WP311997 13.9850 127.650 35 0 13.8774 127.700 3 42 996 0 9 120 120 13.8926 127.477 2 41 993 13.7424 127.700 TS 40 994 9 281
1997311N10151 1997 108 WP MM MORT 1997-11-14 12:00:00 TS 13.9750 127.175 40 996 tokyo main 272 249 OOOO__________ jtwc_wp WP311997 14.1000 127.100 35 0 14.0000 127.300 3 40 996 0 9 120 120 0 14.0000 127.000 2 38 995 13.8000 127.300 TS 40 994 9 285
1997311N10151 1997 108 WP MM MORT 1997-11-14 15:00:00 TS 14.0961 126.759 main 249 218 PPPP__________ WP311997 14.2423 126.592 40 0 14.1500 126.858 3 40 996 0 9 110 110 14.1497 126.692 2 38 995 13.8425 126.892 TS 40 994 8 287
1997311N10151 1997 108 WP MM MORT 1997-11-14 18:00:00 TS 14.2250 126.350 40 996 tokyo main 218 167 OOOO__________ jtwc_wp WP311997 14.4000 126.100 45 0 14.3000 126.400 3 40 996 0 9 100 100 0 14.3000 126.400 2 38 995 13.9000 126.500 TS 40 994 9 287
1997311N10151 1997 108 WP MM MORT 1997-11-14 21:00:00 TS 14.3431 125.907 main 167 131 PPPP__________ WP311997 14.5575 125.578 47 0 14.4000 125.942 3 40 996 0 9 100 100 14.4301 125.958 2 38 995 13.9849 126.150 TS 40 994 9 285
1997311N10151 1997 108 WP MM MORT 1997-11-15 00:00:00 TS 14.4500 125.475 40 996 tokyo main 136 101 OOOO__________ jtwc_wp WP311997 14.7000 125.100 50 0 14.5000 125.500 3 40 996 0 9 100 100 0 14.5000 125.500 2 38 995 14.1000 125.800 TS 40 994 8 284
1997311N10151 1997 108 WP MM MORT 1997-11-15 03:00:00 TS 14.5468 125.092 main 101 79 PPPP__________ WP311997 14.8149 124.720 52 0 14.6499 125.100 3 40 996 0 9 100 100 14.4798 125.142 2 38 995 14.2425 125.408 TS 40 994 7 284
1997311N10151 1997 108 WP MM MORT 1997-11-15 06:00:00 TS 14.6250 124.725 40 996 tokyo main 79 74 OOOO__________ jtwc_wp WP311997 14.9000 124.400 55 0 14.8000 124.700 3 40 996 0 9 100 100 0 14.4000 124.800 2 38 995 14.4000 125.000 TS 40 994 8 280
1997311N10151 1997 108 WP MM MORT 1997-11-15 09:00:00 TS 14.6788 124.328 main 78 78 PPPP__________ WP311997 14.9574 124.092 55 0 14.9226 124.220 3 37 998 0 9 100 100 14.2775 124.400 2 38 995 14.5574 124.600 TS 40 994 8 278
1997311N10151 1997 108 WP MM MORT 1997-11-15 12:00:00 TS 14.7250 123.950 35 1000 tokyo main 79 79 OOOO__________ jtwc_wp WP311997 15.0000 123.800 55 0 15.0000 123.800 3 35 1000 0 9 100 100 0 14.2000 124.000 2 38 995 14.7000 124.200 TS 40 994 7 278
1997311N10151 1997 108 WP MM MORT 1997-11-15 15:00:00 TS 14.7780 123.630 main 95 79 PPPP__________ WP311997 15.0424 123.507 50 0 15.0073 123.577 3 35 1000 0 9 100 100 14.2624 123.650 2 38 995 14.8000 123.785 TS 40 994 6 282
1997311N10151 1997 108 WP MM MORT 1997-11-15 18:00:00 TS 14.8500 123.325 35 1000 tokyo main 89 79 OOOO__________ jtwc_wp WP311997 15.1000 123.200 45 0 15.0000 123.400 3 35 1000 0 9 100 100 0 14.4000 123.300 2 38 995 14.9000 123.400 TS 40 994 7 285
1997311N10151 1997 108 WP MM MORT 1997-11-15 21:00:00 TS 14.9531 122.974 main 90 89 PPPP__________ WP311997 15.1850 122.857 40 0 15.0351 123.093 3 1002 0 9 14.5426 122.885 2 33 996 15.0500 123.063 TS 37 996 7 290
1997311N10151 1997 108 WP MM MORT 1997-11-16 00:00:00 TS 15.0929 122.650 1004 tokyo main 100 93 OOOO__________ jtwc_wp WP311997 15.3000 122.500 35 0 15.1000 122.800 2 1004 0 0 0 14.7000 122.500 1 29 998 15.2000 122.800 TS 35 998 6 297
1997311N10151 1997 108 WP MM MORT 1997-11-16 03:00:00 TS 15.2391 122.397 main 93 70 PPPP__________ WP311997 15.4424 122.150 30 -1 15.1924 122.620 2 1005 0 0 14.8525 122.218 1 26 999 15.3125 122.625 TS 32 999 6 303
1997311N10151 1997 108 WP MM MORT 1997-11-16 06:00:00 TS 15.4111 122.133 1006 tokyo main 63 24 OOOO__________ jtwc_wp WP311997 15.6000 121.800 25 -1 15.3000 122.500 2 1006 0 0 0 15.0000 122.000 1 23 1000 15.4000 122.500 TD 30 1000 7 303
1997311N10151 1997 108 WP MM MORT 1997-11-16 09:00:00 TS 15.6442 121.761 main 24 0 PP____________ WP311997 15.7650 121.443 22 -1 15.4025 122.398 2 1007 0 0 1 TD 8 299
1997311N10151 1997 108 WP MM MORT 1997-11-16 12:00:00 TS 15.8000 121.400 1008 tokyo main 0 0 OO____________ jtwc_wp WP311997 15.9000 121.100 20 -1 15.5000 122.300 2 1008 0 0 0 10 289
1997311N10151 1997 108 WP MM MORT 1997-11-16 15:00:00 NR 15.9701 120.790 main 0 0 P_____________ WP311997 15.9701 120.790 17 -1 2 0 0 9 283
1997311N10151 1997 108 WP MM MORT 1997-11-16 18:00:00 NR 16.0000 120.500 main 0 O_____________ jtwc_wp WP311997 16.0000 120.500 15 -1 6 276

デジタル台風データ・検索

IBTrACS Databaseについて

本データベースは、米国NOAAが公開する1842年以降の世界の熱帯低気圧のベストトラックデータアーカイブInternational Best Track Archive for Climate Stewardship (IBTrACS)を、ウェブで閲覧しやすい形式に変換したものです。

最終更新日:2021-11-26